sensor_id;sensor_type;location;lat;lon;timestamp;temperature;humidity
13052;DHT22;6592;47.484;9.726;2023-12-20T00:02:03;5.70;99.90
13052;DHT22;6592;47.484;9.726;2023-12-20T00:04:34;5.70;99.90
13052;DHT22;6592;47.484;9.726;2023-12-20T00:07:03;5.80;99.90
13052;DHT22;6592;47.484;9.726;2023-12-20T00:09:32;5.80;99.90
13052;DHT22;6592;47.484;9.726;2023-12-20T00:12:00;5.80;99.90
13052;DHT22;6592;47.484;9.726;2023-12-20T00:14:30;5.80;99.90
13052;DHT22;6592;47.484;9.726;2023-12-20T00:16:58;5.80;99.90
13052;DHT22;6592;47.484;9.726;2023-12-20T00:19:27;5.80;99.90
13052;DHT22;6592;47.484;9.726;2023-12-20T00:21:56;5.90;99.90
13052;DHT22;6592;47.484;9.726;2023-12-20T00:24:24;5.80;99.90
13052;DHT22;6592;47.484;9.726;2023-12-20T00:26:53;5.80;99.90
13052;DHT22;6592;47.484;9.726;2023-12-20T00:29:21;5.80;99.90
13052;DHT22;6592;47.484;9.726;2023-12-20T00:31:50;5.70;99.90
13052;DHT22;6592;47.484;9.726;2023-12-20T00:34:19;5.70;99.90
13052;DHT22;6592;47.484;9.726;2023-12-20T00:36:47;5.70;99.90
13052;DHT22;6592;47.484;9.726;2023-12-20T00:39:15;5.60;99.90
13052;DHT22;6592;47.484;9.726;2023-12-20T00:41:44;5.60;99.90
13052;DHT22;6592;47.484;9.726;2023-12-20T00:44:12;5.50;99.90
13052;DHT22;6592;47.484;9.726;2023-12-20T00:46:40;5.50;99.90
13052;DHT22;6592;47.484;9.726;2023-12-20T00:49:10;5.40;99.90
13052;DHT22;6592;47.484;9.726;2023-12-20T00:51:39;5.30;99.90
13052;DHT22;6592;47.484;9.726;2023-12-20T00:54:07;5.20;99.90
13052;DHT22;6592;47.484;9.726;2023-12-20T00:56:36;5.10;99.90
13052;DHT22;6592;47.484;9.726;2023-12-20T00:59:04;5.10;99.90
13052;DHT22;6592;47.484;9.726;2023-12-20T01:01:32;5.00;99.90
13052;DHT22;6592;47.484;9.726;2023-12-20T01:04:01;4.80;99.90
13052;DHT22;6592;47.484;9.726;2023-12-20T01:06:30;4.70;99.90
13052;DHT22;6592;47.484;9.726;2023-12-20T01:08:59;4.70;99.90
13052;DHT22;6592;47.484;9.726;2023-12-20T01:11:27;4.70;99.90
13052;DHT22;6592;47.484;9.726;2023-12-20T01:13:55;4.70;99.90
13052;DHT22;6592;47.484;9.726;2023-12-20T01:16:23;4.80;99.90
13052;DHT22;6592;47.484;9.726;2023-12-20T01:18:52;4.70;99.90
13052;DHT22;6592;47.484;9.726;2023-12-20T01:21:20;4.60;99.90
13052;DHT22;6592;47.484;9.726;2023-12-20T01:23:50;4.50;99.90
13052;DHT22;6592;47.484;9.726;2023-12-20T01:26:18;4.50;99.90
13052;DHT22;6592;47.484;9.726;2023-12-20T01:28:49;4.40;99.90
13052;DHT22;6592;47.484;9.726;2023-12-20T01:31:17;4.40;99.90
13052;DHT22;6592;47.484;9.726;2023-12-20T01:33:46;4.50;99.90
13052;DHT22;6592;47.484;9.726;2023-12-20T01:36:14;4.50;99.90
13052;DHT22;6592;47.484;9.726;2023-12-20T01:38:42;4.50;99.90
13052;DHT22;6592;47.484;9.726;2023-12-20T01:41:12;4.50;99.90
13052;DHT22;6592;47.484;9.726;2023-12-20T01:43:40;4.60;99.90
13052;DHT22;6592;47.484;9.726;2023-12-20T01:46:17;4.50;99.90
13052;DHT22;6592;47.484;9.726;2023-12-20T01:48:47;4.50;99.90
13052;DHT22;6592;47.484;9.726;2023-12-20T01:51:15;4.40;99.90
13052;DHT22;6592;47.484;9.726;2023-12-20T01:53:44;4.40;99.90
13052;DHT22;6592;47.484;9.726;2023-12-20T01:56:14;4.50;99.90
13052;DHT22;6592;47.484;9.726;2023-12-20T01:58:44;4.50;99.90
13052;DHT22;6592;47.484;9.726;2023-12-20T02:01:13;4.50;99.90
13052;DHT22;6592;47.484;9.726;2023-12-20T02:03:42;4.40;99.90
13052;DHT22;6592;47.484;9.726;2023-12-20T02:06:11;4.30;99.90
13052;DHT22;6592;47.484;9.726;2023-12-20T02:08:39;4.40;99.90
13052;DHT22;6592;47.484;9.726;2023-12-20T02:11:08;4.40;99.90
13052;DHT22;6592;47.484;9.726;2023-12-20T02:13:36;4.40;99.90
13052;DHT22;6592;47.484;9.726;2023-12-20T02:16:05;4.40;99.90
13052;DHT22;6592;47.484;9.726;2023-12-20T02:18:34;4.40;99.90
13052;DHT22;6592;47.484;9.726;2023-12-20T02:21:04;4.40;99.90
13052;DHT22;6592;47.484;9.726;2023-12-20T02:23:34;4.50;99.90
13052;DHT22;6592;47.484;9.726;2023-12-20T02:26:03;4.60;99.90
13052;DHT22;6592;47.484;9.726;2023-12-20T02:28:33;4.70;99.90
13052;DHT22;6592;47.484;9.726;2023-12-20T02:31:02;4.70;99.90
13052;DHT22;6592;47.484;9.726;2023-12-20T02:33:31;4.70;99.90
13052;DHT22;6592;47.484;9.726;2023-12-20T02:36:00;4.80;99.90
13052;DHT22;6592;47.484;9.726;2023-12-20T02:38:28;4.70;99.90
13052;DHT22;6592;47.484;9.726;2023-12-20T02:40:58;4.60;99.90
13052;DHT22;6592;47.484;9.726;2023-12-20T02:43:26;4.60;99.90
13052;DHT22;6592;47.484;9.726;2023-12-20T02:45:54;4.60;99.90
13052;DHT22;6592;47.484;9.726;2023-12-20T02:48:23;4.70;99.90
13052;DHT22;6592;47.484;9.726;2023-12-20T02:50:51;4.70;99.90
13052;DHT22;6592;47.484;9.726;2023-12-20T02:53:20;4.70;99.90
13052;DHT22;6592;47.484;9.726;2023-12-20T02:55:48;4.60;99.90
13052;DHT22;6592;47.484;9.726;2023-12-20T02:58:18;4.60;99.90
13052;DHT22;6592;47.484;9.726;2023-12-20T03:00:46;4.60;99.90
13052;DHT22;6592;47.484;9.726;2023-12-20T03:03:15;4.60;99.90
13052;DHT22;6592;47.484;9.726;2023-12-20T03:05:43;4.50;99.90
13052;DHT22;6592;47.484;9.726;2023-12-20T03:08:13;4.50;99.90
13052;DHT22;6592;47.484;9.726;2023-12-20T03:10:41;4.40;99.90
13052;DHT22;6592;47.484;9.726;2023-12-20T03:13:10;4.40;99.90
13052;DHT22;6592;47.484;9.726;2023-12-20T03:15:40;4.40;99.90
13052;DHT22;6592;47.484;9.726;2023-12-20T03:18:09;4.30;99.90
13052;DHT22;6592;47.484;9.726;2023-12-20T03:20:37;4.30;99.90
13052;DHT22;6592;47.484;9.726;2023-12-20T03:23:05;4.30;99.90
13052;DHT22;6592;47.484;9.726;2023-12-20T03:25:33;4.20;99.90
13052;DHT22;6592;47.484;9.726;2023-12-20T03:28:02;4.20;99.90
13052;DHT22;6592;47.484;9.726;2023-12-20T03:30:30;4.30;99.90
13052;DHT22;6592;47.484;9.726;2023-12-20T03:33:00;4.30;99.90
13052;DHT22;6592;47.484;9.726;2023-12-20T03:35:28;4.30;99.90
13052;DHT22;6592;47.484;9.726;2023-12-20T03:37:56;4.30;99.90
13052;DHT22;6592;47.484;9.726;2023-12-20T03:40:27;4.30;99.90
13052;DHT22;6592;47.484;9.726;2023-12-20T03:42:55;4.40;99.90
13052;DHT22;6592;47.484;9.726;2023-12-20T03:45:23;4.40;99.90
13052;DHT22;6592;47.484;9.726;2023-12-20T03:47:51;4.40;99.90
13052;DHT22;6592;47.484;9.726;2023-12-20T03:50:23;4.40;99.90
13052;DHT22;6592;47.484;9.726;2023-12-20T03:52:52;4.40;99.90
13052;DHT22;6592;47.484;9.726;2023-12-20T03:55:20;4.50;99.90
13052;DHT22;6592;47.484;9.726;2023-12-20T03:57:48;4.50;99.90
13052;DHT22;6592;47.484;9.726;2023-12-20T04:00:17;4.60;99.90
13052;DHT22;6592;47.484;9.726;2023-12-20T04:02:48;4.60;99.90
13052;DHT22;6592;47.484;9.726;2023-12-20T04:05:17;4.70;99.90
13052;DHT22;6592;47.484;9.726;2023-12-20T04:07:47;4.70;99.90
13052;DHT22;6592;47.484;9.726;2023-12-20T04:10:17;4.80;99.90
13052;DHT22;6592;47.484;9.726;2023-12-20T04:12:46;4.90;99.90
13052;DHT22;6592;47.484;9.726;2023-12-20T04:15:15;4.90;99.90
13052;DHT22;6592;47.484;9.726;2023-12-20T04:17:43;4.90;99.90
13052;DHT22;6592;47.484;9.726;2023-12-20T04:20:12;4.90;99.90
13052;DHT22;6592;47.484;9.726;2023-12-20T04:22:41;4.80;99.90
13052;DHT22;6592;47.484;9.726;2023-12-20T04:25:11;4.90;99.90
13052;DHT22;6592;47.484;9.726;2023-12-20T04:27:46;4.90;99.90
13052;DHT22;6592;47.484;9.726;2023-12-20T04:30:15;5.00;99.90
13052;DHT22;6592;47.484;9.726;2023-12-20T04:32:46;5.00;99.90
13052;DHT22;6592;47.484;9.726;2023-12-20T04:35:15;5.10;99.90
13052;DHT22;6592;47.484;9.726;2023-12-20T04:37:43;5.10;99.90
13052;DHT22;6592;47.484;9.726;2023-12-20T04:40:13;5.10;99.90
13052;DHT22;6592;47.484;9.726;2023-12-20T04:42:42;5.20;99.90
13052;DHT22;6592;47.484;9.726;2023-12-20T04:45:11;5.20;99.90
13052;DHT22;6592;47.484;9.726;2023-12-20T04:47:41;5.30;99.90
13052;DHT22;6592;47.484;9.726;2023-12-20T04:50:10;5.40;99.90
13052;DHT22;6592;47.484;9.726;2023-12-20T04:52:40;5.40;99.90
13052;DHT22;6592;47.484;9.726;2023-12-20T04:55:08;5.50;99.90
13052;DHT22;6592;47.484;9.726;2023-12-20T04:57:38;5.50;99.90
13052;DHT22;6592;47.484;9.726;2023-12-20T05:00:07;5.60;99.90
13052;DHT22;6592;47.484;9.726;2023-12-20T05:02:36;5.60;99.90
13052;DHT22;6592;47.484;9.726;2023-12-20T05:05:05;5.60;99.90
13052;DHT22;6592;47.484;9.726;2023-12-20T05:07:33;5.70;99.90
13052;DHT22;6592;47.484;9.726;2023-12-20T05:10:02;5.70;99.90
13052;DHT22;6592;47.484;9.726;2023-12-20T05:12:31;5.60;99.90
13052;DHT22;6592;47.484;9.726;2023-12-20T05:15:01;5.60;99.90
13052;DHT22;6592;47.484;9.726;2023-12-20T05:17:29;5.60;99.90
13052;DHT22;6592;47.484;9.726;2023-12-20T05:19:57;5.60;99.90
13052;DHT22;6592;47.484;9.726;2023-12-20T05:22:26;5.50;99.90
13052;DHT22;6592;47.484;9.726;2023-12-20T05:24:55;5.50;99.90
13052;DHT22;6592;47.484;9.726;2023-12-20T05:27:28;5.50;99.90
13052;DHT22;6592;47.484;9.726;2023-12-20T05:29:57;5.50;99.90
13052;DHT22;6592;47.484;9.726;2023-12-20T05:32:33;5.50;99.90
13052;DHT22;6592;47.484;9.726;2023-12-20T05:35:04;5.60;99.90
13052;DHT22;6592;47.484;9.726;2023-12-20T05:37:33;5.60;99.90
13052;DHT22;6592;47.484;9.726;2023-12-20T05:40:01;5.60;99.90
13052;DHT22;6592;47.484;9.726;2023-12-20T05:42:29;5.70;99.90
13052;DHT22;6592;47.484;9.726;2023-12-20T05:44:58;5.70;99.90
13052;DHT22;6592;47.484;9.726;2023-12-20T05:47:27;5.70;99.90
13052;DHT22;6592;47.484;9.726;2023-12-20T05:49:55;5.70;99.90
13052;DHT22;6592;47.484;9.726;2023-12-20T05:52:24;5.70;99.90
13052;DHT22;6592;47.484;9.726;2023-12-20T05:54:52;5.80;99.90
13052;DHT22;6592;47.484;9.726;2023-12-20T05:57:20;5.80;99.90
13052;DHT22;6592;47.484;9.726;2023-12-20T05:59:50;5.80;99.90
13052;DHT22;6592;47.484;9.726;2023-12-20T06:02:18;5.90;99.90
13052;DHT22;6592;47.484;9.726;2023-12-20T06:04:48;5.90;99.90
13052;DHT22;6592;47.484;9.726;2023-12-20T06:07:17;5.80;99.90
13052;DHT22;6592;47.484;9.726;2023-12-20T06:09:46;5.80;99.90
13052;DHT22;6592;47.484;9.726;2023-12-20T06:12:14;5.80;99.90
13052;DHT22;6592;47.484;9.726;2023-12-20T06:14:42;5.80;99.90
13052;DHT22;6592;47.484;9.726;2023-12-20T06:17:10;5.70;99.90
13052;DHT22;6592;47.484;9.726;2023-12-20T06:19:39;5.80;99.90
13052;DHT22;6592;47.484;9.726;2023-12-20T06:22:08;5.80;99.90
13052;DHT22;6592;47.484;9.726;2023-12-20T06:24:37;5.80;99.90
13052;DHT22;6592;47.484;9.726;2023-12-20T06:27:05;5.80;99.90
13052;DHT22;6592;47.484;9.726;2023-12-20T06:29:34;5.80;99.90
13052;DHT22;6592;47.484;9.726;2023-12-20T06:32:02;5.70;99.90
13052;DHT22;6592;47.484;9.726;2023-12-20T06:34:31;5.80;99.90
13052;DHT22;6592;47.484;9.726;2023-12-20T06:36:59;5.60;99.90
13052;DHT22;6592;47.484;9.726;2023-12-20T06:39:29;5.60;99.90
13052;DHT22;6592;47.484;9.726;2023-12-20T06:41:59;5.70;99.90
13052;DHT22;6592;47.484;9.726;2023-12-20T06:44:27;5.70;99.90
13052;DHT22;6592;47.484;9.726;2023-12-20T06:46:55;5.70;99.90
13052;DHT22;6592;47.484;9.726;2023-12-20T06:49:23;5.70;99.90
13052;DHT22;6592;47.484;9.726;2023-12-20T06:51:52;5.50;99.90
13052;DHT22;6592;47.484;9.726;2023-12-20T06:54:21;5.50;99.90
13052;DHT22;6592;47.484;9.726;2023-12-20T06:56:56;5.60;99.90
13052;DHT22;6592;47.484;9.726;2023-12-20T06:59:24;5.70;99.90
13052;DHT22;6592;47.484;9.726;2023-12-20T07:01:56;5.70;99.90
13052;DHT22;6592;47.484;9.726;2023-12-20T07:04:24;5.70;99.90
13052;DHT22;6592;47.484;9.726;2023-12-20T07:06:53;5.70;99.90
13052;DHT22;6592;47.484;9.726;2023-12-20T07:09:24;5.80;99.90
13052;DHT22;6592;47.484;9.726;2023-12-20T07:11:52;5.80;99.90
13052;DHT22;6592;47.484;9.726;2023-12-20T07:14:22;5.80;99.90
13052;DHT22;6592;47.484;9.726;2023-12-20T07:16:51;5.70;99.90
13052;DHT22;6592;47.484;9.726;2023-12-20T07:19:19;5.70;99.90
13052;DHT22;6592;47.484;9.726;2023-12-20T07:21:47;5.70;99.90
13052;DHT22;6592;47.484;9.726;2023-12-20T07:24:15;5.70;99.90
13052;DHT22;6592;47.484;9.726;2023-12-20T07:26:44;5.70;99.90
13052;DHT22;6592;47.484;9.726;2023-12-20T07:29:12;5.70;99.90
13052;DHT22;6592;47.484;9.726;2023-12-20T07:31:42;5.70;99.90
13052;DHT22;6592;47.484;9.726;2023-12-20T07:34:10;5.70;99.90
13052;DHT22;6592;47.484;9.726;2023-12-20T07:36:39;5.70;99.90
13052;DHT22;6592;47.484;9.726;2023-12-20T07:39:07;5.80;99.90
13052;DHT22;6592;47.484;9.726;2023-12-20T07:41:35;5.80;99.90
13052;DHT22;6592;47.484;9.726;2023-12-20T07:44:04;5.80;99.90
13052;DHT22;6592;47.484;9.726;2023-12-20T07:46:33;5.80;99.90
13052;DHT22;6592;47.484;9.726;2023-12-20T07:49:03;5.90;99.90
13052;DHT22;6592;47.484;9.726;2023-12-20T07:51:32;5.90;99.90
13052;DHT22;6592;47.484;9.726;2023-12-20T07:54:00;5.90;99.90
13052;DHT22;6592;47.484;9.726;2023-12-20T07:56:28;5.90;99.90
13052;DHT22;6592;47.484;9.726;2023-12-20T07:58:56;5.90;99.90
13052;DHT22;6592;47.484;9.726;2023-12-20T08:01:26;5.90;99.90
13052;DHT22;6592;47.484;9.726;2023-12-20T08:03:55;5.90;99.90
13052;DHT22;6592;47.484;9.726;2023-12-20T08:06:25;5.90;99.90
13052;DHT22;6592;47.484;9.726;2023-12-20T08:08:53;5.90;99.90
13052;DHT22;6592;47.484;9.726;2023-12-20T08:11:32;5.90;99.90
13052;DHT22;6592;47.484;9.726;2023-12-20T08:14:00;6.00;99.90
13052;DHT22;6592;47.484;9.726;2023-12-20T08:16:28;6.00;99.90
13052;DHT22;6592;47.484;9.726;2023-12-20T08:18:56;6.00;99.90
13052;DHT22;6592;47.484;9.726;2023-12-20T08:21:26;6.10;99.90
13052;DHT22;6592;47.484;9.726;2023-12-20T08:23:54;6.00;99.90
13052;DHT22;6592;47.484;9.726;2023-12-20T08:26:23;6.10;99.90
13052;DHT22;6592;47.484;9.726;2023-12-20T08:28:52;6.10;99.90
13052;DHT22;6592;47.484;9.726;2023-12-20T08:31:22;6.20;99.90
13052;DHT22;6592;47.484;9.726;2023-12-20T08:33:50;6.20;99.90
13052;DHT22;6592;47.484;9.726;2023-12-20T08:36:20;6.30;99.90
13052;DHT22;6592;47.484;9.726;2023-12-20T08:38:51;6.30;99.90
13052;DHT22;6592;47.484;9.726;2023-12-20T08:41:20;6.40;99.90
13052;DHT22;6592;47.484;9.726;2023-12-20T08:43:48;6.40;99.90
13052;DHT22;6592;47.484;9.726;2023-12-20T08:46:16;6.40;99.90
13052;DHT22;6592;47.484;9.726;2023-12-20T08:48:45;6.50;99.90
13052;DHT22;6592;47.484;9.726;2023-12-20T08:51:13;6.50;99.90
13052;DHT22;6592;47.484;9.726;2023-12-20T08:53:42;6.50;99.90
13052;DHT22;6592;47.484;9.726;2023-12-20T08:56:13;6.50;99.90
13052;DHT22;6592;47.484;9.726;2023-12-20T08:58:42;6.40;99.90
13052;DHT22;6592;47.484;9.726;2023-12-20T09:01:10;6.40;99.90
13052;DHT22;6592;47.484;9.726;2023-12-20T09:03:39;6.50;99.90
13052;DHT22;6592;47.484;9.726;2023-12-20T09:06:07;6.50;99.90
13052;DHT22;6592;47.484;9.726;2023-12-20T09:08:36;6.50;99.90
13052;DHT22;6592;47.484;9.726;2023-12-20T09:11:04;6.40;99.90
13052;DHT22;6592;47.484;9.726;2023-12-20T09:13:34;6.40;99.90
13052;DHT22;6592;47.484;9.726;2023-12-20T09:16:03;6.40;99.90
13052;DHT22;6592;47.484;9.726;2023-12-20T09:18:31;6.40;99.90
13052;DHT22;6592;47.484;9.726;2023-12-20T09:21:00;6.50;99.90
13052;DHT22;6592;47.484;9.726;2023-12-20T09:23:29;6.50;99.90
13052;DHT22;6592;47.484;9.726;2023-12-20T09:25:57;6.60;99.90
13052;DHT22;6592;47.484;9.726;2023-12-20T09:28:25;6.60;99.90
13052;DHT22;6592;47.484;9.726;2023-12-20T09:30:55;6.80;99.90
13052;DHT22;6592;47.484;9.726;2023-12-20T09:33:23;6.80;99.90
13052;DHT22;6592;47.484;9.726;2023-12-20T09:35:52;6.90;99.90
13052;DHT22;6592;47.484;9.726;2023-12-20T09:38:20;7.00;99.90
13052;DHT22;6592;47.484;9.726;2023-12-20T09:40:49;7.00;99.90
13052;DHT22;6592;47.484;9.726;2023-12-20T09:43:19;7.10;99.90
13052;DHT22;6592;47.484;9.726;2023-12-20T09:45:48;7.20;99.90
13052;DHT22;6592;47.484;9.726;2023-12-20T09:48:18;7.20;99.90
13052;DHT22;6592;47.484;9.726;2023-12-20T09:50:48;7.30;99.90
13052;DHT22;6592;47.484;9.726;2023-12-20T09:53:20;7.30;99.90
13052;DHT22;6592;47.484;9.726;2023-12-20T09:55:51;7.40;99.90
13052;DHT22;6592;47.484;9.726;2023-12-20T09:58:19;7.30;99.90
13052;DHT22;6592;47.484;9.726;2023-12-20T10:00:48;7.30;99.90
13052;DHT22;6592;47.484;9.726;2023-12-20T10:03:22;7.30;99.90
13052;DHT22;6592;47.484;9.726;2023-12-20T10:05:54;7.30;99.90
13052;DHT22;6592;47.484;9.726;2023-12-20T10:08:24;7.20;99.90
13052;DHT22;6592;47.484;9.726;2023-12-20T10:10:53;7.10;99.90
13052;DHT22;6592;47.484;9.726;2023-12-20T10:13:22;7.10;99.90
13052;DHT22;6592;47.484;9.726;2023-12-20T10:15:50;7.20;99.90
13052;DHT22;6592;47.484;9.726;2023-12-20T10:18:20;7.10;99.90
13052;DHT22;6592;47.484;9.726;2023-12-20T10:21:03;7.10;99.90
13052;DHT22;6592;47.484;9.726;2023-12-20T10:23:32;7.10;99.90
13052;DHT22;6592;47.484;9.726;2023-12-20T10:26:00;6.90;99.90
13052;DHT22;6592;47.484;9.726;2023-12-20T10:28:33;6.90;99.90
13052;DHT22;6592;47.484;9.726;2023-12-20T10:31:02;7.00;99.90
13052;DHT22;6592;47.484;9.726;2023-12-20T10:33:32;7.10;99.90
13052;DHT22;6592;47.484;9.726;2023-12-20T10:36:01;7.00;99.90
13052;DHT22;6592;47.484;9.726;2023-12-20T10:38:30;6.90;99.90
13052;DHT22;6592;47.484;9.726;2023-12-20T10:40:58;6.80;99.90
13052;DHT22;6592;47.484;9.726;2023-12-20T10:43:28;6.80;99.90
13052;DHT22;6592;47.484;9.726;2023-12-20T10:45:58;6.60;99.90
13052;DHT22;6592;47.484;9.726;2023-12-20T10:48:28;6.50;99.90
13052;DHT22;6592;47.484;9.726;2023-12-20T10:50:59;6.50;99.90
13052;DHT22;6592;47.484;9.726;2023-12-20T10:53:29;6.50;99.90
13052;DHT22;6592;47.484;9.726;2023-12-20T10:56:00;6.50;99.90
13052;DHT22;6592;47.484;9.726;2023-12-20T10:58:32;6.60;99.90
13052;DHT22;6592;47.484;9.726;2023-12-20T11:01:01;6.60;99.90
13052;DHT22;6592;47.484;9.726;2023-12-20T11:03:34;6.60;99.90
13052;DHT22;6592;47.484;9.726;2023-12-20T11:06:09;6.70;99.90
13052;DHT22;6592;47.484;9.726;2023-12-20T11:08:44;6.70;99.90
13052;DHT22;6592;47.484;9.726;2023-12-20T11:11:19;6.70;99.90
13052;DHT22;6592;47.484;9.726;2023-12-20T11:13:57;6.80;99.90
13052;DHT22;6592;47.484;9.726;2023-12-20T11:16:27;7.00;99.90
13052;DHT22;6592;47.484;9.726;2023-12-20T11:19:11;7.00;99.90
13052;DHT22;6592;47.484;9.726;2023-12-20T11:21:43;7.10;99.90
13052;DHT22;6592;47.484;9.726;2023-12-20T11:24:11;7.20;99.90
13052;DHT22;6592;47.484;9.726;2023-12-20T11:26:46;7.30;99.90
13052;DHT22;6592;47.484;9.726;2023-12-20T11:29:31;7.30;99.90
13052;DHT22;6592;47.484;9.726;2023-12-20T11:32:01;7.30;99.90
13052;DHT22;6592;47.484;9.726;2023-12-20T11:34:32;7.50;99.90
13052;DHT22;6592;47.484;9.726;2023-12-20T11:37:04;7.40;99.90
13052;DHT22;6592;47.484;9.726;2023-12-20T11:39:32;7.40;99.90
13052;DHT22;6592;47.484;9.726;2023-12-20T11:42:05;7.30;99.90
13052;DHT22;6592;47.484;9.726;2023-12-20T11:44:36;7.20;99.90
13052;DHT22;6592;47.484;9.726;2023-12-20T11:47:04;7.30;99.90
13052;DHT22;6592;47.484;9.726;2023-12-20T11:49:33;7.40;99.90
13052;DHT22;6592;47.484;9.726;2023-12-20T11:52:03;7.50;99.90
13052;DHT22;6592;47.484;9.726;2023-12-20T11:54:31;7.40;99.90
13052;DHT22;6592;47.484;9.726;2023-12-20T11:57:00;7.50;99.90
13052;DHT22;6592;47.484;9.726;2023-12-20T11:59:28;7.60;99.90
13052;DHT22;6592;47.484;9.726;2023-12-20T12:01:56;7.60;99.90
13052;DHT22;6592;47.484;9.726;2023-12-20T12:04:28;7.60;99.90
13052;DHT22;6592;47.484;9.726;2023-12-20T12:06:57;7.60;99.90
13052;DHT22;6592;47.484;9.726;2023-12-20T12:09:27;7.70;99.90
13052;DHT22;6592;47.484;9.726;2023-12-20T12:11:55;7.60;99.90
13052;DHT22;6592;47.484;9.726;2023-12-20T12:14:24;7.60;99.90
13052;DHT22;6592;47.484;9.726;2023-12-20T12:16:52;7.60;99.90
13052;DHT22;6592;47.484;9.726;2023-12-20T12:19:21;7.60;99.90
13052;DHT22;6592;47.484;9.726;2023-12-20T12:21:49;7.60;99.90
13052;DHT22;6592;47.484;9.726;2023-12-20T12:24:20;7.60;99.90
13052;DHT22;6592;47.484;9.726;2023-12-20T12:26:51;7.60;99.90
13052;DHT22;6592;47.484;9.726;2023-12-20T12:29:19;7.60;99.90
13052;DHT22;6592;47.484;9.726;2023-12-20T12:31:47;7.60;99.90
13052;DHT22;6592;47.484;9.726;2023-12-20T12:34:16;7.60;99.90
13052;DHT22;6592;47.484;9.726;2023-12-20T12:36:45;7.60;99.90
13052;DHT22;6592;47.484;9.726;2023-12-20T12:39:16;7.60;99.90
13052;DHT22;6592;47.484;9.726;2023-12-20T12:41:45;7.60;99.90
13052;DHT22;6592;47.484;9.726;2023-12-20T12:44:15;7.60;99.90
13052;DHT22;6592;47.484;9.726;2023-12-20T12:46:45;7.70;99.90
13052;DHT22;6592;47.484;9.726;2023-12-20T12:49:13;7.70;99.90
13052;DHT22;6592;47.484;9.726;2023-12-20T12:51:42;7.80;99.90
13052;DHT22;6592;47.484;9.726;2023-12-20T12:54:12;7.80;99.90
13052;DHT22;6592;47.484;9.726;2023-12-20T12:56:43;7.80;99.90
13052;DHT22;6592;47.484;9.726;2023-12-20T12:59:12;7.80;99.90
13052;DHT22;6592;47.484;9.726;2023-12-20T13:01:41;7.90;99.90
13052;DHT22;6592;47.484;9.726;2023-12-20T13:04:10;7.90;99.90
13052;DHT22;6592;47.484;9.726;2023-12-20T13:06:39;7.90;99.90
13052;DHT22;6592;47.484;9.726;2023-12-20T13:09:08;7.80;99.90
13052;DHT22;6592;47.484;9.726;2023-12-20T13:11:37;7.80;99.90
13052;DHT22;6592;47.484;9.726;2023-12-20T13:14:05;7.70;99.90
13052;DHT22;6592;47.484;9.726;2023-12-20T13:16:37;7.70;99.90
13052;DHT22;6592;47.484;9.726;2023-12-20T13:19:07;7.70;99.90
13052;DHT22;6592;47.484;9.726;2023-12-20T13:21:38;7.80;99.90
13052;DHT22;6592;47.484;9.726;2023-12-20T13:24:07;7.80;99.90
13052;DHT22;6592;47.484;9.726;2023-12-20T13:26:36;7.90;99.90
13052;DHT22;6592;47.484;9.726;2023-12-20T13:29:04;7.90;99.90
13052;DHT22;6592;47.484;9.726;2023-12-20T13:31:32;7.80;99.90
13052;DHT22;6592;47.484;9.726;2023-12-20T13:34:00;7.70;99.90
13052;DHT22;6592;47.484;9.726;2023-12-20T13:36:30;7.70;99.90
13052;DHT22;6592;47.484;9.726;2023-12-20T13:38:58;7.70;99.90
13052;DHT22;6592;47.484;9.726;2023-12-20T13:41:26;7.70;99.90
13052;DHT22;6592;47.484;9.726;2023-12-20T13:43:55;7.70;99.90
13052;DHT22;6592;47.484;9.726;2023-12-20T13:46:23;7.70;99.90
13052;DHT22;6592;47.484;9.726;2023-12-20T13:48:52;7.60;99.90
13052;DHT22;6592;47.484;9.726;2023-12-20T13:51:20;7.60;99.90
13052;DHT22;6592;47.484;9.726;2023-12-20T13:53:50;7.50;99.90
13052;DHT22;6592;47.484;9.726;2023-12-20T13:56:18;7.50;99.90
13052;DHT22;6592;47.484;9.726;2023-12-20T13:58:47;7.40;99.90
13052;DHT22;6592;47.484;9.726;2023-12-20T14:01:15;7.40;99.90
13052;DHT22;6592;47.484;9.726;2023-12-20T14:03:44;7.40;99.90
13052;DHT22;6592;47.484;9.726;2023-12-20T14:06:12;7.30;99.90
13052;DHT22;6592;47.484;9.726;2023-12-20T14:08:42;7.30;99.90
13052;DHT22;6592;47.484;9.726;2023-12-20T14:11:11;7.30;99.90
13052;DHT22;6592;47.484;9.726;2023-12-20T14:13:42;7.30;99.90
13052;DHT22;6592;47.484;9.726;2023-12-20T14:16:11;7.20;99.90
13052;DHT22;6592;47.484;9.726;2023-12-20T14:18:39;7.20;99.90
13052;DHT22;6592;47.484;9.726;2023-12-20T14:21:08;7.20;99.90
13052;DHT22;6592;47.484;9.726;2023-12-20T14:23:37;7.20;99.90
13052;DHT22;6592;47.484;9.726;2023-12-20T14:26:07;7.20;99.90
13052;DHT22;6592;47.484;9.726;2023-12-20T14:28:42;7.30;99.90
13052;DHT22;6592;47.484;9.726;2023-12-20T14:31:10;7.30;99.90
13052;DHT22;6592;47.484;9.726;2023-12-20T14:33:39;7.30;99.90
13052;DHT22;6592;47.484;9.726;2023-12-20T14:36:09;7.30;99.90
13052;DHT22;6592;47.484;9.726;2023-12-20T14:38:37;7.30;99.90
13052;DHT22;6592;47.484;9.726;2023-12-20T14:41:06;7.30;99.90
13052;DHT22;6592;47.484;9.726;2023-12-20T14:43:36;7.40;99.90
13052;DHT22;6592;47.484;9.726;2023-12-20T14:46:06;7.40;99.90
13052;DHT22;6592;47.484;9.726;2023-12-20T14:48:35;7.30;99.90
13052;DHT22;6592;47.484;9.726;2023-12-20T14:51:03;7.30;99.90
13052;DHT22;6592;47.484;9.726;2023-12-20T14:53:31;7.30;99.90
13052;DHT22;6592;47.484;9.726;2023-12-20T14:56:01;7.20;99.90
13052;DHT22;6592;47.484;9.726;2023-12-20T14:58:29;7.20;99.90
13052;DHT22;6592;47.484;9.726;2023-12-20T15:00:58;7.20;99.90
13052;DHT22;6592;47.484;9.726;2023-12-20T15:03:28;7.10;99.90
13052;DHT22;6592;47.484;9.726;2023-12-20T15:05:57;7.10;99.90
13052;DHT22;6592;47.484;9.726;2023-12-20T15:08:26;7.10;99.90
13052;DHT22;6592;47.484;9.726;2023-12-20T15:10:55;7.00;99.90
13052;DHT22;6592;47.484;9.726;2023-12-20T15:13:23;7.10;99.90
13052;DHT22;6592;47.484;9.726;2023-12-20T15:15:52;7.00;99.90
13052;DHT22;6592;47.484;9.726;2023-12-20T15:18:20;7.00;99.90
13052;DHT22;6592;47.484;9.726;2023-12-20T15:20:50;6.90;99.90
13052;DHT22;6592;47.484;9.726;2023-12-20T15:23:18;6.90;99.90
13052;DHT22;6592;47.484;9.726;2023-12-20T15:25:48;6.90;99.90
13052;DHT22;6592;47.484;9.726;2023-12-20T15:28:17;6.80;99.90
13052;DHT22;6592;47.484;9.726;2023-12-20T15:30:45;6.80;99.90
13052;DHT22;6592;47.484;9.726;2023-12-20T15:33:14;6.80;99.90
13052;DHT22;6592;47.484;9.726;2023-12-20T15:35:42;6.80;99.90
13052;DHT22;6592;47.484;9.726;2023-12-20T15:38:12;6.80;99.90
13052;DHT22;6592;47.484;9.726;2023-12-20T15:40:41;6.70;99.90
13052;DHT22;6592;47.484;9.726;2023-12-20T15:43:09;6.70;99.90
13052;DHT22;6592;47.484;9.726;2023-12-20T15:45:39;6.70;99.90
13052;DHT22;6592;47.484;9.726;2023-12-20T15:48:07;6.70;99.90
13052;DHT22;6592;47.484;9.726;2023-12-20T15:50:41;6.70;99.90
13052;DHT22;6592;47.484;9.726;2023-12-20T15:53:10;6.60;99.90
13052;DHT22;6592;47.484;9.726;2023-12-20T15:55:39;6.60;99.90
13052;DHT22;6592;47.484;9.726;2023-12-20T15:58:08;6.50;99.90
13052;DHT22;6592;47.484;9.726;2023-12-20T16:00:36;6.50;99.90
13052;DHT22;6592;47.484;9.726;2023-12-20T16:03:05;6.50;99.90
13052;DHT22;6592;47.484;9.726;2023-12-20T16:05:49;6.50;99.90
13052;DHT22;6592;47.484;9.726;2023-12-20T16:08:18;6.50;99.90
13052;DHT22;6592;47.484;9.726;2023-12-20T16:10:48;6.50;99.90
13052;DHT22;6592;47.484;9.726;2023-12-20T16:13:16;6.40;99.90
13052;DHT22;6592;47.484;9.726;2023-12-20T16:15:44;6.50;99.90